Laupahoehoe, Hawaii
Current Conditions -  °F | °C
As of 3:53 PM on Sunday 21 Dec 2014 (Local Time) from PHTO Reporting Station
Broken Clouds Broken Clouds  
Wind Chill: 79°   Ceiling: 4500
Heat Index: 81°   Visibility: 10mi
Dew Point: 68°   Wind: 6mph
Humidity: 69%   Direction: 110°ESE
Pressure: 29.95"   Gusts: NA
Location:  19.98°N, 155.24°W
Report Text: PHTO 220153Z 11005KT 10SM BKN045 26/20 A2995 RMK AO2 SLP140 T02610200 $
Loading
Personal Weather Stations






























Interactive Weather Map New forecast layout! Learn more

10-Day Weather Forecast

Advertisements
Track Severe Weather on mobile